METAR AND TAF INFORMATION
METAR FOR LEGR
ADDS - METARS form results

(1159 UTC 12 December 2018)
Data provider http://aviationweather.gov/metar/data/
 
METAR text: LEGR 121130Z 00000KT 8000 FEW005 11/07 Q1023
Conditions at: LEGR (GRANADA AIRPORT , ES) observed 1130 UTC 12 December 2018
Temperature: 11.0°C (52°F)
Dewpoint: 7.0°C (45°F) [RH = 76%]
Pressure (altimeter): 30.21 inches Hg (1023.0 mb)
Winds: calm
Visibility: 5 miles ( 8 km)
Ceiling: at least 12,000 feet AGL
Clouds: few clouds at 500 feet AGL
Weather: no significant weather observed at this time

METAR text: LEGR 121100Z 00000KT 8000 FEW005 10/08 Q1024
Conditions at: LEGR (GRANADA AIRPORT , ES) observed 1100 UTC 12 December 2018
Temperature: 10.0°C (50°F)
Dewpoint: 8.0°C (46°F) [RH = 87%]
Pressure (altimeter): 30.24 inches Hg (1024.0 mb)
Winds: calm
Visibility: 5 miles ( 8 km)
Ceiling: at least 12,000 feet AGL
Clouds: few clouds at 500 feet AGL
Weather: no significant weather observed at this time

Forecast for: LEGR (GRANADA AIRPORT , ES)
Text: TAF LEGR 120800Z 1209/1309 VRB02KT 9999 BKN020 TX19/1215Z TN01/1307Z
Forecast period: 0900 UTC 12 December 2018 to 0900 UTC 13 December 2018
Forecast type: FROM: standard forecast or significant change
Winds: variable direction winds at 2 MPH (2 knots; 1.0 m/s)
Visibility: 6 or more miles 10+ km)
Ceiling: 2000 feet AGL
Clouds: broken clouds at 2000 feet AGL
Weather: no significant weather forecast for this period

 AIRPORT MAP

 RUNWAY INFORMATION
Runway 09 Runway length 9514 ft Runway width 148 ft
Runway elevation 1842 ft Runway displaced threshold 0 ft Runway heading 90
Runway 27 Runway length 9514 ft Runway width 148 ft
Runway elevation 1860 ft Runway displaced threshold 0 ft Runway heading 270

 AIRPORT FREQUENCIES
Type GND Name GND Frequency 121.7 MHZ
Type TWR Name TWR Frequency 118.85 MHZ

 AIRPORT NEAR NAVIGATION AIDS
Type VOR-DME Name Granada Frequency 113400 KHZ



Powered by Virtual Airlines Manager [v2.6.2]